Bessemer, Colorado
Current Conditions -  °F | °C
As of 1:53 PM on Thursday 23 Oct 2014 (Local Time) from KPUB Reporting Station
Clear Clear  
Wind Chill: 74°   Ceiling: Unl
Heat Index: 74°   Visibility: 10mi
Dew Point: 28°   Wind: 7mph
Humidity: 18%   Direction: 150°SSE
Pressure: 30.1"   Gusts: NA
Location:  38.1378°N, 104.663°W
Report Text: KPUB 231953Z 15006KT 10SM CLR 23/M02 A3010 RMK AO2 SLP148 T02331022
Loading
Personal Weather Stations






























Interactive Weather Map
Tropical Storm Tracking
New forecast layout! Learn more

10-Day Weather Forecast

Advertisements
Track Severe Weather on mobile